Time;durP1;ratioP1;P1;durP2;ratioP2;P2;SDS_P1;SDS_P2;PMS_P1;PMS_P2;Temp;Humidity;BMP_temperature;BMP_pressure;BME280_temperature;BME280_humidity;BME280_pressure;Samples;Min_cycle;Max_cycle;Signal;HPM_P1;HPM_P2
2023/03/24 00:00:48;;;;;;;48.97;34.20;;;;;;;;;;4872355;29;20081;-96
2023/03/24 00:03:17;;;;;;;53.80;34.50;;;;;;;;;;4874151;29;20059;-96
2023/03/24 00:05:43;;;;;;;45.92;32.88;;;;;;;;;;4872497;29;20049;-94
2023/03/24 00:08:10;;;;;;;49.28;33.65;;;;;;;;;;4873269;29;20029;-96
2023/03/24 00:10:39;;;;;;;49.05;32.95;;;;;;;;;;4867433;29;20029;-94
2023/03/24 00:13:05;;;;;;;47.30;33.80;;;;;;;;;;4881204;29;20037;-94
2023/03/24 00:15:32;;;;;;;48.22;33.80;;;;;;;;;;4866778;29;20071;-94
2023/03/24 00:17:58;;;;;;;51.63;34.70;;;;;;;;;;4866488;29;20124;-95
2023/03/24 00:20:25;;;;;;;50.20;34.40;;;;;;;;;;4896905;29;20033;-96
2023/03/24 00:22:55;;;;;;;52.00;32.33;;;;;;;;;;4869250;29;20062;-94
2023/03/24 00:25:23;;;;;;;44.30;33.00;;;;;;;;;;4876465;29;20029;-93
2023/03/24 00:27:50;;;;;;;47.78;32.50;;;;;;;;;;4868466;29;20439;-96
2023/03/24 00:30:17;;;;;;;41.85;31.35;;;;;;;;;;4865805;29;20499;-95
2023/03/24 00:32:45;;;;;;;44.65;30.50;;;;;;;;;;4866207;29;20050;-95
2023/03/24 00:35:13;;;;;;;44.40;33.10;;;;;;;;;;4867019;29;20105;-96
2023/03/24 00:37:40;;;;;;;43.88;33.30;;;;;;;;;;4898716;29;20033;-95
2023/03/24 00:40:27;;;;;;;42.05;31.42;;;;;;;;;;4865682;29;20551;-96
2023/03/24 00:42:53;;;;;;;45.63;32.78;;;;;;;;;;4869766;29;20029;-94
2023/03/24 00:45:21;;;;;;;45.97;31.85;;;;;;;;;;4868702;29;20036;-96
2023/03/24 00:47:52;;;;;;;54.67;33.38;;;;;;;;;;4883729;29;20029;-94
2023/03/24 00:50:19;;;;;;;48.97;32.95;;;;;;;;;;4880385;29;20059;-94
2023/03/24 00:52:46;;;;;;;44.97;31.98;;;;;;;;;;4870454;29;20116;-93
2023/03/24 00:55:14;;;;;;;44.78;32.33;;;;;;;;;;4868080;29;20072;-96
2023/03/24 00:57:48;;;;;;;42.40;31.70;;;;;;;;;;4882560;29;20033;-95
2023/03/24 01:00:19;;;;;;;45.85;31.15;;;;;;;;;;4865192;29;20029;-93
2023/03/24 01:02:52;;;;;;;45.88;31.70;;;;;;;;;;4864377;29;20033;-95
2023/03/24 01:05:19;;;;;;;40.65;30.00;;;;;;;;;;4865293;29;20033;-96
2023/03/24 01:07:50;;;;;;;44.20;31.52;;;;;;;;;;4866130;29;20036;-95
2023/03/24 01:10:18;;;;;;;43.05;30.02;;;;;;;;;;4864704;29;20507;-95
2023/03/24 01:12:45;;;;;;;42.00;31.00;;;;;;;;;;4865926;29;20032;-95
2023/03/24 01:15:13;;;;;;;44.40;32.72;;;;;;;;;;4864812;29;20088;-96
2023/03/24 01:17:39;;;;;;;48.00;32.70;;;;;;;;;;4867501;29;20033;-94
2023/03/24 01:20:07;;;;;;;45.28;31.23;;;;;;;;;;4865540;29;20044;-96
2023/03/24 01:22:38;;;;;;;42.88;30.63;;;;;;;;;;4866275;29;20029;-94
2023/03/24 01:25:05;;;;;;;45.95;30.88;;;;;;;;;;4864504;29;20037;-93
2023/03/24 01:27:31;;;;;;;43.58;29.80;;;;;;;;;;4864625;29;20032;-95
2023/03/24 01:29:59;;;;;;;41.38;29.95;;;;;;;;;;4897139;29;20049;-93
2023/03/24 01:32:31;;;;;;;41.33;30.48;;;;;;;;;;4865912;29;20029;-92
2023/03/24 01:35:03;;;;;;;46.95;31.38;;;;;;;;;;4866702;29;20072;-95
2023/03/24 01:37:56;;;;;;;43.20;30.02;;;;;;;;;;4867015;29;20033;-96
2023/03/24 01:40:30;;;;;;;48.22;31.75;;;;;;;;;;4867557;29;20021;-96
2023/03/24 01:46:08;;;;;;;40.33;29.35;;;;;;;;;;4875132;29;20124;-96
2023/03/24 01:48:42;;;;;;;38.00;26.83;;;;;;;;;;4891796;29;20024;-94
2023/03/24 01:51:13;;;;;;;39.83;27.98;;;;;;;;;;4884866;29;20033;-96
2023/03/24 01:53:42;;;;;;;41.10;29.15;;;;;;;;;;4872955;29;20033;-96
2023/03/24 01:56:09;;;;;;;39.65;28.75;;;;;;;;;;4870298;29;20041;-96
2023/03/24 01:58:37;;;;;;;43.15;30.60;;;;;;;;;;4866974;29;20029;-95
2023/03/24 02:01:04;;;;;;;48.45;29.77;;;;;;;;;;4885432;29;20025;-96
2023/03/24 02:03:33;;;;;;;47.45;31.30;;;;;;;;;;4869334;29;20386;-95
2023/03/24 02:06:01;;;;;;;41.72;28.88;;;;;;;;;;4869404;29;20029;-96
2023/03/24 02:08:51;;;;;;;42.25;29.77;;;;;;;;;;4886864;29;20479;-96
2023/03/24 02:11:17;;;;;;;37.33;27.40;;;;;;;;;;4869495;29;20037;-96
2023/03/24 02:13:59;;;;;;;39.00;27.88;;;;;;;;;;4871446;29;20054;-96
2023/03/24 02:16:25;;;;;;;42.25;28.05;;;;;;;;;;4886782;29;20087;-96
2023/03/24 02:18:59;;;;;;;37.25;26.27;;;;;;;;;;4888829;29;20057;-96
2023/03/24 02:21:28;;;;;;;35.63;25.00;;;;;;;;;;4873995;29;20119;-96
2023/03/24 02:24:09;;;;;;;35.25;25.92;;;;;;;;;;4871030;29;20025;-96
2023/03/24 02:26:36;;;;;;;40.35;27.52;;;;;;;;;;4873342;29;20037;-96
2023/03/24 02:29:05;;;;;;;37.13;27.00;;;;;;;;;;4869660;29;20062;-96
2023/03/24 02:31:37;;;;;;;38.30;26.73;;;;;;;;;;4870253;29;20124;-96
2023/03/24 02:34:10;;;;;;;37.30;27.75;;;;;;;;;;4869205;29;20031;-96
2023/03/24 02:36:39;;;;;;;42.67;28.23;;;;;;;;;;4869888;29;20025;-96
2023/03/24 02:39:15;;;;;;;34.85;26.20;;;;;;;;;;4896765;29;20044;-94
2023/03/24 02:41:46;;;;;;;35.35;26.50;;;;;;;;;;4874997;29;20057;-96
2023/03/24 02:44:31;;;;;;;29.58;21.40;;;;;;;;;;4867686;29;20029;-96
2023/03/24 02:47:06;;;;;;;32.75;22.60;;;;;;;;;;4871474;29;20032;-96
2023/03/24 02:49:32;;;;;;;30.65;21.73;;;;;;;;;;4871872;29;20037;-96
2023/03/24 02:52:01;;;;;;;27.42;21.58;;;;;;;;;;4873464;29;20025;-94
2023/03/24 02:54:36;;;;;;;28.33;20.88;;;;;;;;;;4871954;29;20037;-95
2023/03/24 02:57:09;;;;;;;28.17;21.13;;;;;;;;;;4871559;29;20029;-94
2023/03/24 02:59:40;;;;;;;29.75;20.58;;;;;;;;;;4869222;29;20116;-94
2023/03/24 03:02:17;;;;;;;35.50;22.27;;;;;;;;;;4868486;29;20087;-96
2023/03/24 03:04:49;;;;;;;29.58;21.88;;;;;;;;;;4883185;29;20041;-95
2023/03/24 03:07:20;;;;;;;30.35;21.17;;;;;;;;;;4899347;29;20032;-96
2023/03/24 03:09:59;;;;;;;26.77;20.63;;;;;;;;;;4883319;29;20049;-95
2023/03/24 03:12:27;;;;;;;25.77;21.02;;;;;;;;;;4868709;29;20479;-96
2023/03/24 03:14:57;;;;;;;29.90;20.20;;;;;;;;;;4883709;29;20406;-95
2023/03/24 03:17:29;;;;;;;26.77;21.17;;;;;;;;;;4867433;29;20029;-95
2023/03/24 03:20:04;;;;;;;26.70;20.45;;;;;;;;;;4868327;29;20028;-96
2023/03/24 03:22:33;;;;;;;28.02;20.30;;;;;;;;;;4869930;29;20033;-95
2023/03/24 03:25:01;;;;;;;27.13;20.77;;;;;;;;;;4875916;29;20104;-95
2023/03/24 03:27:30;;;;;;;29.35;21.15;;;;;;;;;;4894019;29;20036;-96
2023/03/24 03:30:17;;;;;;;28.42;20.70;;;;;;;;;;4868456;29;20565;-96
2023/03/24 03:32:52;;;;;;;26.55;20.17;;;;;;;;;;4861456;29;20041;-96
2023/03/24 03:35:29;;;;;;;24.35;18.90;;;;;;;;;;4867417;29;20037;-96
2023/03/24 03:37:59;;;;;;;24.17;18.80;;;;;;;;;;4867718;29;20033;-94
2023/03/24 03:40:30;;;;;;;25.38;18.70;;;;;;;;;;4866342;29;20037;-94
2023/03/24 03:42:56;;;;;;;25.95;19.30;;;;;;;;;;4866740;29;20029;-94
2023/03/24 03:45:23;;;;;;;24.67;19.38;;;;;;;;;;4867492;29;20033;-96
2023/03/24 03:47:50;;;;;;;29.40;19.30;;;;;;;;;;4866109;29;20471;-96
2023/03/24 03:50:16;;;;;;;27.42;19.60;;;;;;;;;;4866302;29;20093;-94
2023/03/24 03:52:43;;;;;;;23.73;17.80;;;;;;;;;;4866950;29;20199;-93
2023/03/24 03:55:10;;;;;;;21.60;17.10;;;;;;;;;;4897435;29;20066;-95
2023/03/24 03:57:36;;;;;;;23.05;17.77;;;;;;;;;;4881636;29;20096;-94
2023/03/24 04:00:10;;;;;;;24.80;18.27;;;;;;;;;;4865731;29;20033;-94
2023/03/24 04:02:42;;;;;;;22.80;18.15;;;;;;;;;;4877292;29;20025;-94
2023/03/24 04:05:30;;;;;;;22.77;17.10;;;;;;;;;;4879411;29;20494;-95
2023/03/24 04:08:05;;;;;;;24.20;17.38;;;;;;;;;;4866915;29;20036;-94
2023/03/24 04:10:50;;;;;;;26.05;16.85;;;;;;;;;;4865827;29;20033;-93
2023/03/24 04:13:22;;;;;;;25.17;17.17;;;;;;;;;;4866929;29;20077;-93
2023/03/24 04:15:55;;;;;;;23.40;15.82;;;;;;;;;;4866777;29;20045;-93
2023/03/24 04:18:27;;;;;;;20.50;15.98;;;;;;;;;;4867063;29;20090;-94
2023/03/24 04:21:02;;;;;;;22.67;16.88;;;;;;;;;;4866653;29;20037;-96
2023/03/24 04:23:41;;;;;;;23.23;16.85;;;;;;;;;;4880551;29;20036;-94
2023/03/24 04:26:26;;;;;;;21.48;16.60;;;;;;;;;;4866412;29;20028;-94
2023/03/24 04:28:56;;;;;;;26.23;17.23;;;;;;;;;;4865749;29;20423;-94
2023/03/24 04:31:29;;;;;;;26.52;18.63;;;;;;;;;;4867725;29;20040;-95
2023/03/24 04:34:02;;;;;;;30.67;18.92;;;;;;;;;;4866353;29;20048;-96
2023/03/24 04:36:49;;;;;;;27.88;19.80;;;;;;;;;;4866547;29;20045;-95
2023/03/24 04:39:18;;;;;;;27.77;20.25;;;;;;;;;;4866161;29;20066;-93
2023/03/24 04:41:46;;;;;;;28.65;19.75;;;;;;;;;;4866294;29;20053;-96
2023/03/24 04:44:20;;;;;;;28.98;20.15;;;;;;;;;;4866364;29;20029;-95
2023/03/24 04:46:48;;;;;;;40.22;20.75;;;;;;;;;;4865837;29;20467;-94
2023/03/24 04:49:18;;;;;;;29.83;20.52;;;;;;;;;;4867576;29;20029;-94
2023/03/24 04:51:46;;;;;;;29.58;19.35;;;;;;;;;;4884840;29;20025;-95
2023/03/24 04:54:12;;;;;;;25.35;18.25;;;;;;;;;;4866925;29;20025;-96
2023/03/24 04:57:00;;;;;;;29.98;19.48;;;;;;;;;;4883767;29;20047;-96
2023/03/24 04:59:27;;;;;;;23.77;18.73;;;;;;;;;;4870831;29;20021;-95
2023/03/24 05:01:53;;;;;;;27.90;19.10;;;;;;;;;;4870593;29;20474;-96
2023/03/24 05:04:20;;;;;;;26.80;19.45;;;;;;;;;;4880121;29;20037;-93
2023/03/24 05:06:48;;;;;;;31.05;20.20;;;;;;;;;;4864486;29;20036;-95
2023/03/24 05:09:16;;;;;;;32.33;19.25;;;;;;;;;;4863816;29;20375;-94
2023/03/24 05:11:43;;;;;;;32.13;18.27;;;;;;;;;;4864455;29;20166;-94
2023/03/24 05:14:10;;;;;;;24.35;18.95;;;;;;;;;;4863983;29;20036;-92
2023/03/24 05:16:36;;;;;;;26.48;19.00;;;;;;;;;;4864570;29;20029;-93
2023/03/24 05:19:03;;;;;;;26.95;18.88;;;;;;;;;;4864626;29;20394;-94
2023/03/24 05:21:29;;;;;;;26.88;18.73;;;;;;;;;;4864751;29;20102;-95
2023/03/24 05:23:55;;;;;;;32.75;19.90;;;;;;;;;;4864490;29;20021;-95
2023/03/24 05:26:25;;;;;;;28.33;18.80;;;;;;;;;;4865810;29;20033;-94
2023/03/24 05:28:51;;;;;;;31.10;18.40;;;;;;;;;;4864821;29;20029;-94
2023/03/24 05:31:17;;;;;;;29.95;18.90;;;;;;;;;;4864369;29;20136;-93
2023/03/24 05:33:43;;;;;;;23.80;18.40;;;;;;;;;;4862599;29;20057;-94
2023/03/24 05:36:10;;;;;;;26.05;17.70;;;;;;;;;;4863715;29;20570;-95
2023/03/24 05:38:36;;;;;;;28.27;17.23;;;;;;;;;;4864521;29;20123;-93
2023/03/24 05:41:02;;;;;;;24.42;17.80;;;;;;;;;;4862908;29;20066;-95
2023/03/24 05:43:29;;;;;;;25.30;17.33;;;;;;;;;;4862486;29;20467;-96
2023/03/24 05:48:59;;;;;;;23.42;15.93;;;;;;;;;;4879952;29;20072;-94
2023/03/24 05:51:25;;;;;;;23.38;16.83;;;;;;;;;;4863141;29;20036;-95
2023/03/24 05:53:51;;;;;;;24.60;17.20;;;;;;;;;;4867786;29;20089;-93
2023/03/24 05:56:17;;;;;;;24.88;16.77;;;;;;;;;;4871784;29;20148;-95
2023/03/24 05:58:43;;;;;;;31.33;19.25;;;;;;;;;;4864130;29;20037;-95
2023/03/24 06:01:10;;;;;;;23.80;18.48;;;;;;;;;;4864757;29;20375;-96
2023/03/24 06:03:39;;;;;;;23.98;17.58;;;;;;;;;;4868980;29;20025;-95
2023/03/24 06:06:07;;;;;;;24.13;16.92;;;;;;;;;;4891278;29;20033;-92
2023/03/24 06:08:33;;;;;;;25.25;16.67;;;;;;;;;;4869701;29;20371;-94
2023/03/24 06:11:01;;;;;;;26.52;17.52;;;;;;;;;;4863963;29;20032;-95
2023/03/24 06:13:27;;;;;;;22.63;17.65;;;;;;;;;;4864599;29;20021;-94
2023/03/24 06:15:57;;;;;;;28.50;19.23;;;;;;;;;;4863440;29;20100;-93
2023/03/24 06:18:25;;;;;;;31.08;20.23;;;;;;;;;;4870051;29;20059;-92
2023/03/24 06:20:55;;;;;;;148.20;132.32;;;;;;;;;;4878945;29;20037;-92
2023/03/24 06:23:26;;;;;;;33.50;20.90;;;;;;;;;;4868966;29;20092;-94
2023/03/24 06:25:53;;;;;;;30.73;20.00;;;;;;;;;;4868349;29;20028;-93
2023/03/24 06:28:19;;;;;;;26.42;17.63;;;;;;;;;;4869028;29;20033;-94
2023/03/24 06:30:47;;;;;;;35.30;21.38;;;;;;;;;;4867918;29;20104;-95
2023/03/24 06:33:14;;;;;;;34.17;19.35;;;;;;;;;;4867632;29;20335;-96
2023/03/24 06:35:40;;;;;;;31.80;21.25;;;;;;;;;;4867104;29;20167;-95
2023/03/24 06:38:07;;;;;;;28.33;18.95;;;;;;;;;;4867826;29;20025;-94
2023/03/24 06:40:34;;;;;;;35.13;29.15;;;;;;;;;;4867657;29;20033;-96
2023/03/24 06:43:00;;;;;;;32.08;22.77;;;;;;;;;;4852391;29;20515;-95
2023/03/24 06:45:26;;;;;;;19.13;12.90;;;;;;;;;;4867637;29;20068;-95
2023/03/24 06:47:56;;;;;;;16.98;13.75;;;;;;;;;;4867452;29;20352;-93
2023/03/24 06:50:25;;;;;;;19.02;13.05;;;;;;;;;;4867285;29;20029;-95
2023/03/24 06:52:52;;;;;;;15.82;12.38;;;;;;;;;;4867210;29;20104;-95
2023/03/24 06:55:18;;;;;;;15.80;11.98;;;;;;;;;;4867051;29;20037;-94
2023/03/24 06:57:44;;;;;;;17.75;12.40;;;;;;;;;;4866769;29;20049;-93
2023/03/24 07:00:12;;;;;;;25.25;13.43;;;;;;;;;;4867507;29;20072;-96
2023/03/24 07:02:39;;;;;;;25.40;13.98;;;;;;;;;;4867573;29;20049;-95
2023/03/24 07:05:07;;;;;;;22.83;13.98;;;;;;;;;;4866844;29;20065;-92
2023/03/24 07:07:34;;;;;;;16.40;12.75;;;;;;;;;;4867946;29;20036;-94
2023/03/24 07:10:01;;;;;;;20.58;13.43;;;;;;;;;;4866917;29;20030;-92
2023/03/24 07:12:27;;;;;;;18.05;12.55;;;;;;;;;;4866849;29;20032;-94
2023/03/24 07:14:54;;;;;;;18.95;13.13;;;;;;;;;;4866199;29;20060;-94
2023/03/24 07:17:21;;;;;;;17.90;13.23;;;;;;;;;;4866632;29;20489;-94
2023/03/24 07:19:47;;;;;;;18.50;13.15;;;;;;;;;;4866761;29;20029;-93
2023/03/24 07:22:13;;;;;;;18.30;12.90;;;;;;;;;;4866575;29;20046;-94
2023/03/24 07:24:39;;;;;;;19.42;12.75;;;;;;;;;;4867663;29;20044;-95
2023/03/24 07:27:05;;;;;;;16.38;12.85;;;;;;;;;;4866571;29;20040;-95
2023/03/24 07:29:35;;;;;;;20.77;13.35;;;;;;;;;;4884475;29;20029;-96
2023/03/24 07:32:02;;;;;;;15.63;12.80;;;;;;;;;;4868801;29;20036;-96
2023/03/24 07:34:29;;;;;;;17.70;12.77;;;;;;;;;;4866787;29;20037;-95
2023/03/24 07:36:55;;;;;;;18.75;12.63;;;;;;;;;;4866954;29;20029;-95
2023/03/24 07:39:21;;;;;;;17.08;12.65;;;;;;;;;;4866571;29;20491;-95
2023/03/24 07:41:47;;;;;;;15.48;12.48;;;;;;;;;;4866607;29;20029;-95
2023/03/24 07:44:14;;;;;;;18.20;12.20;;;;;;;;;;4867313;29;20025;-94
2023/03/24 07:46:40;;;;;;;17.63;13.60;;;;;;;;;;4866255;29;20044;-94
2023/03/24 07:49:06;;;;;;;18.33;13.10;;;;;;;;;;4871899;29;20021;-92
2023/03/24 07:51:33;;;;;;;17.85;13.95;;;;;;;;;;4872684;29;20037;-96
2023/03/24 07:53:59;;;;;;;18.40;13.45;;;;;;;;;;4865992;29;20579;-93
2023/03/24 07:56:26;;;;;;;17.65;12.93;;;;;;;;;;4862569;29;20013;-94
2023/03/24 07:58:56;;;;;;;16.48;14.23;;;;;;;;;;4877290;29;20048;-95
2023/03/24 08:01:22;;;;;;;17.45;13.07;;;;;;;;;;4867809;29;20164;-94
2023/03/24 08:03:53;;;;;;;14.80;11.20;;;;;;;;;;4865802;29;20483;-93
2023/03/24 08:06:19;;;;;;;16.60;11.50;;;;;;;;;;4865772;29;20036;-94
2023/03/24 08:08:46;;;;;;;14.02;10.98;;;;;;;;;;4865926;29;20061;-92
2023/03/24 08:11:15;;;;;;;13.73;10.18;;;;;;;;;;4865617;29;20029;-94
2023/03/24 08:13:41;;;;;;;12.45;10.32;;;;;;;;;;4866026;29;20121;-93
2023/03/24 08:19:17;;;;;;;11.98;9.25;;;;;;;;;;4883812;29;20066;-94
2023/03/24 08:21:43;;;;;;;12.57;9.30;;;;;;;;;;4865568;29;20172;-94
2023/03/24 08:24:10;;;;;;;10.63;8.65;;;;;;;;;;4865532;29;20048;-96
2023/03/24 08:26:36;;;;;;;14.05;9.43;;;;;;;;;;4881233;29;20048;-95
2023/03/24 08:29:02;;;;;;;15.23;9.02;;;;;;;;;;4866610;29;20130;-95
2023/03/24 08:31:35;;;;;;;12.77;9.20;;;;;;;;;;4862981;29;20037;-95
2023/03/24 08:34:05;;;;;;;10.48;8.80;;;;;;;;;;4853140;29;20093;-96
2023/03/24 08:36:34;;;;;;;11.45;8.40;;;;;;;;;;4848676;29;20535;-94
2023/03/24 08:39:00;;;;;;;12.32;8.82;;;;;;;;;;4845822;29;20105;-93
2023/03/24 08:41:33;;;;;;;12.35;8.57;;;;;;;;;;4847944;29;20038;-94
2023/03/24 08:44:02;;;;;;;13.68;9.68;;;;;;;;;;4834729;29;20236;-93
2023/03/24 08:46:28;;;;;;;14.63;9.10;;;;;;;;;;4858514;29;20105;-96
2023/03/24 08:48:56;;;;;;;11.43;9.13;;;;;;;;;;4851566;29;20081;-93
2023/03/24 08:51:22;;;;;;;12.00;8.70;;;;;;;;;;4850566;29;20029;-93
2023/03/24 08:53:51;;;;;;;12.98;8.85;;;;;;;;;;4864970;29;20029;-94
2023/03/24 08:56:17;;;;;;;10.48;8.65;;;;;;;;;;4864698;29;20040;-94
2023/03/24 08:58:47;;;;;;;10.48;8.70;;;;;;;;;;4881886;29;20029;-93
2023/03/24 09:01:13;;;;;;;10.25;8.25;;;;;;;;;;4859281;29;20037;-94
2023/03/24 09:03:40;;;;;;;11.60;8.85;;;;;;;;;;4850602;29;20025;-95
2023/03/24 09:06:07;;;;;;;14.80;8.93;;;;;;;;;;4849166;29;20029;-96
2023/03/24 09:08:37;;;;;;;13.35;8.38;;;;;;;;;;4868270;29;20063;-96
2023/03/24 09:11:04;;;;;;;10.93;8.45;;;;;;;;;;4853987;29;20153;-96
2023/03/24 09:13:31;;;;;;;15.57;8.82;;;;;;;;;;4852872;29;20515;-95
2023/03/24 09:16:02;;;;;;;13.50;10.60;;;;;;;;;;4883690;29;20065;-95
2023/03/24 09:18:29;;;;;;;11.80;8.55;;;;;;;;;;4871325;29;20036;-96
2023/03/24 09:20:56;;;;;;;11.35;9.35;;;;;;;;;;4899140;29;20045;-95
2023/03/24 09:23:23;;;;;;;13.10;9.40;;;;;;;;;;4869644;29;20089;-95
2023/03/24 09:25:50;;;;;;;10.77;9.07;;;;;;;;;;4872408;29;20080;-96
2023/03/24 09:28:17;;;;;;;17.30;9.35;;;;;;;;;;4851551;29;20539;-95
2023/03/24 09:30:43;;;;;;;12.48;8.85;;;;;;;;;;4870193;29;20029;-94
2023/03/24 09:33:14;;;;;;;11.50;8.95;;;;;;;;;;4899743;29;20021;-96
2023/03/24 09:35:42;;;;;;;12.88;8.85;;;;;;;;;;4871858;29;20077;-96
2023/03/24 09:38:38;;;;;;;;;;;;;;;;;;;;;
2023/03/24 09:41:19;;;;;;;11.50;9.45;;;;;;;;;;4883365;29;20037;-96
2023/03/24 09:44:05;;;;;;;11.65;8.90;;;;;;;;;;4884150;29;20025;-96
2023/03/24 09:46:35;;;;;;;11.07;9.18;;;;;;;;;;4866948;29;20482;-95
2023/03/24 09:49:02;;;;;;;12.40;8.50;;;;;;;;;;4860861;29;20108;-95
2023/03/24 09:51:34;;;;;;;12.27;8.95;;;;;;;;;;4875078;29;20044;-94
2023/03/24 09:54:26;;;;;;;12.55;9.38;;;;;;;;;;4871660;29;20037;-95
2023/03/24 09:56:54;;;;;;;12.40;9.70;;;;;;;;;;4865413;29;20037;-93
2023/03/24 09:59:26;;;;;;;13.85;9.90;;;;;;;;;;4864269;29;20033;-94
2023/03/24 10:01:52;;;;;;;13.13;9.10;;;;;;;;;;4847345;29;20025;-95
2023/03/24 10:04:21;;;;;;;10.93;8.38;;;;;;;;;;4873464;29;20101;-93
2023/03/24 10:06:52;;;;;;;13.52;8.93;;;;;;;;;;4848331;29;20132;-92
2023/03/24 10:09:31;;;;;;;15.80;11.93;;;;;;;;;;4864021;29;20029;-92
2023/03/24 10:12:06;;;;;;;30.00;17.85;;;;;;;;;;4863550;29;20531;-94
2023/03/24 10:14:35;;;;;;;19.55;12.02;;;;;;;;;;4863549;29;20144;-95
2023/03/24 10:17:13;;;;;;;13.23;9.00;;;;;;;;;;4863897;29;20049;-95
2023/03/24 10:19:45;;;;;;;12.80;9.73;;;;;;;;;;4857757;29;20369;-95
2023/03/24 10:22:38;;;;;;;13.30;8.90;;;;;;;;;;4845346;29;20070;-95
2023/03/24 10:25:42;;;;;;;;;;;;;;;;;;;;;
2023/03/24 10:28:05;;;;;;;15.02;10.55;;;;;;;;;;4882874;29;20475;-95
2023/03/24 10:30:34;;;;;;;10.25;8.40;;;;;;;;;;4864036;29;20387;-92
2023/03/24 10:33:01;;;;;;;10.82;8.43;;;;;;;;;;4859973;29;20476;-95
2023/03/24 10:35:29;;;;;;;11.90;9.88;;;;;;;;;;4864629;29;20116;-95
2023/03/24 10:37:57;;;;;;;12.27;8.68;;;;;;;;;;4882041;29;20029;-93
2023/03/24 10:40:30;;;;;;;10.80;8.52;;;;;;;;;;4881699;29;20028;-95
2023/03/24 10:42:57;;;;;;;15.00;10.00;;;;;;;;;;4882373;29;20025;-94
2023/03/24 10:45:26;;;;;;;14.18;10.15;;;;;;;;;;4882422;29;20041;-93
2023/03/24 10:47:54;;;;;;;13.05;9.13;;;;;;;;;;4881897;29;20029;-93
2023/03/24 10:50:23;;;;;;;15.27;9.63;;;;;;;;;;4882436;29;20550;-95
2023/03/24 10:52:50;;;;;;;15.10;9.13;;;;;;;;;;4881691;29;20028;-93
2023/03/24 10:55:18;;;;;;;14.75;9.07;;;;;;;;;;4870741;29;20041;-93
2023/03/24 10:57:45;;;;;;;15.35;9.20;;;;;;;;;;4863015;29;20017;-94
2023/03/24 11:00:28;;;;;;;12.73;9.70;;;;;;;;;;4865240;29;20037;-93
2023/03/24 11:03:04;;;;;;;12.13;9.03;;;;;;;;;;4863744;29;20055;-93
2023/03/24 11:05:38;;;;;;;12.38;9.93;;;;;;;;;;4863609;29;20274;-95
2023/03/24 11:08:14;;;;;;;11.35;8.90;;;;;;;;;;4879542;29;20021;-94
2023/03/24 11:10:40;;;;;;;13.25;8.98;;;;;;;;;;4885280;29;20028;-95
2023/03/24 11:13:17;;;;;;;12.93;9.63;;;;;;;;;;4888779;29;20032;-93
2023/03/24 11:16:04;;;;;;;14.18;9.07;;;;;;;;;;4891527;29;20044;-96
2023/03/24 11:18:31;;;;;;;13.98;9.32;;;;;;;;;;4885160;29;20024;-96
2023/03/24 11:21:04;;;;;;;14.82;9.98;;;;;;;;;;4885430;29;20028;-92
2023/03/24 11:23:30;;;;;;;16.42;9.55;;;;;;;;;;4886070;29;20538;-94
2023/03/24 11:26:06;;;;;;;12.45;9.20;;;;;;;;;;4885015;29;20081;-93
2023/03/24 11:28:38;;;;;;;11.45;8.98;;;;;;;;;;4885415;29;20032;-95
2023/03/24 11:31:09;;;;;;;14.50;9.75;;;;;;;;;;4885046;29;20031;-93
2023/03/24 11:33:45;;;;;;;12.05;9.07;;;;;;;;;;4876867;29;20783;-91
2023/03/24 11:36:30;;;;;;;13.30;9.88;;;;;;;;;;4866501;29;20041;-92
2023/03/24 11:39:00;;;;;;;14.82;9.32;;;;;;;;;;4866614;29;20116;-93
2023/03/24 11:41:27;;;;;;;14.70;9.30;;;;;;;;;;4867585;29;20037;-93
2023/03/24 11:44:12;;;;;;;13.52;9.50;;;;;;;;;;4870306;29;20009;-95
2023/03/24 11:46:41;;;;;;;13.88;8.77;;;;;;;;;;4899043;29;20017;-95
2023/03/24 11:52:28;;;;;;;15.00;9.02;;;;;;;;;;4886990;29;20051;-94
2023/03/24 11:54:55;;;;;;;13.30;9.40;;;;;;;;;;4868315;29;20037;-95
2023/03/24 11:57:37;;;;;;;10.05;8.68;;;;;;;;;;4869508;29;20033;-95
2023/03/24 12:00:12;;;;;;;20.85;9.82;;;;;;;;;;4865817;29;20120;-94
2023/03/24 12:02:56;;;;;;;12.57;8.43;;;;;;;;;;4866231;29;20050;-94
2023/03/24 12:05:41;;;;;;;12.98;8.88;;;;;;;;;;4871017;29;20029;-94
2023/03/24 12:08:26;;;;;;;14.57;8.93;;;;;;;;;;4870077;29;20044;-95
2023/03/24 12:11:18;;;;;;;14.82;10.10;;;;;;;;;;4885113;29;20028;-96
2023/03/24 12:24:10;;;;;;;12.55;9.43;;;;;;;;;;5641698;23;20059;-93
2023/03/24 12:26:36;;;;;;;12.77;8.63;;;;;;;;;;4884717;29;20800;-92
2023/03/24 12:29:18;;;;;;;15.77;9.27;;;;;;;;;;4884150;29;20033;-94
2023/03/24 12:31:44;;;;;;;12.85;9.52;;;;;;;;;;4884201;29;20474;-93
2023/03/24 12:34:17;;;;;;;14.35;8.93;;;;;;;;;;4884556;29;20661;-93
2023/03/24 12:37:02;;;;;;;11.55;9.38;;;;;;;;;;4951206;23;20059;-94
2023/03/24 12:48:34;;;;;;;15.98;9.55;;;;;;;;;;5587490;23;20057;-95
2023/03/24 12:51:15;;;;;;;12.85;9.13;;;;;;;;;;4877652;29;20541;-94
2023/03/24 12:53:41;;;;;;;14.38;10.00;;;;;;;;;;4883328;29;20052;-96
2023/03/24 12:56:19;;;;;;;12.52;9.18;;;;;;;;;;4892047;29;20037;-93
2023/03/24 13:01:39;;;;;;;12.68;9.07;;;;;;;;;;4900402;29;20129;-93
2023/03/24 13:09:58;;;;;;;11.50;9.15;;;;;;;;;;5021130;23;20060;-94
2023/03/24 13:12:38;;;;;;;10.82;9.30;;;;;;;;;;4883039;29;20028;-93
2023/03/24 13:15:23;;;;;;;13.77;9.43;;;;;;;;;;4883782;29;20045;-92
2023/03/24 13:18:26;;;;;;;12.50;9.13;;;;;;;;;;4890080;29;20032;-92
2023/03/24 13:32:07;;;;;;;11.80;9.13;;;;;;;;;;4923694;23;20049;-95
2023/03/24 13:34:49;;;;;;;13.57;9.25;;;;;;;;;;4892689;29;20073;-96
2023/03/24 13:37:18;;;;;;;11.15;8.55;;;;;;;;;;4900749;29;20036;-94
2023/03/24 13:39:46;;;;;;;10.73;8.88;;;;;;;;;;4899324;29;20036;-94
2023/03/24 13:42:29;;;;;;;12.00;9.48;;;;;;;;;;4894474;29;20029;-95
2023/03/24 13:44:55;;;;;;;;;;;;;;;;;;4884743;29;20036;-94
2023/03/24 13:47:28;;;;;;;12.60;9.25;;;;;;;;;;4898896;29;19911;-94
2023/03/24 13:50:02;;;;;;;13.30;8.82;;;;;;;;;;4885076;29;20021;-94
2023/03/24 13:52:38;;;;;;;12.63;9.63;;;;;;;;;;4884258;29;20041;-94
2023/03/24 13:55:13;;;;;;;10.50;8.63;;;;;;;;;;4884132;29;20036;-95
2023/03/24 13:57:48;;;;;;;11.23;8.70;;;;;;;;;;4884548;29;20029;-96
2023/03/24 14:00:20;;;;;;;12.23;8.90;;;;;;;;;;4887975;29;20093;-96
2023/03/24 14:02:49;;;;;;;16.17;9.65;;;;;;;;;;4891102;29;20101;-94
2023/03/24 14:05:22;;;;;;;16.08;9.93;;;;;;;;;;4889962;29;20029;-96
2023/03/24 14:08:04;;;;;;;11.60;9.40;;;;;;;;;;4886666;29;20096;-96
2023/03/24 14:10:47;;;;;;;10.60;9.15;;;;;;;;;;4882924;29;20033;-94
2023/03/24 14:13:13;;;;;;;12.90;8.40;;;;;;;;;;4884882;29;20056;-96
2023/03/24 14:15:50;;;;;;;11.88;8.98;;;;;;;;;;4892480;29;20132;-96
2023/03/24 14:18:36;;;;;;;13.07;9.35;;;;;;;;;;4891685;29;20363;-96
2023/03/24 14:21:14;;;;;;;13.02;9.00;;;;;;;;;;4860152;29;20544;-95
2023/03/24 14:23:42;;;;;;;13.65;9.13;;;;;;;;;;4887635;29;20035;-94
2023/03/24 14:26:17;;;;;;;11.93;9.23;;;;;;;;;;4890039;29;20454;-94
2023/03/24 14:28:46;;;;;;;11.73;8.80;;;;;;;;;;4890402;29;20033;-94
2023/03/24 14:31:14;;;;;;;19.10;11.55;;;;;;;;;;4884460;29;20401;-93
2023/03/24 14:45:58;;;;;;;14.20;9.43;;;;;;;;;;4883646;29;20036;-95
2023/03/24 14:51:40;;;;;;;11.20;9.30;;;;;;;;;;5164175;23;20063;-95
2023/03/24 14:54:17;;;;;;;12.60;8.85;;;;;;;;;;4894054;29;20017;-96
2023/03/24 14:56:45;;;;;;;10.80;8.95;;;;;;;;;;4886269;29;20127;-96
2023/03/24 14:59:29;;;;;;;12.65;8.98;;;;;;;;;;4887652;29;20025;-96
2023/03/24 15:01:55;;;;;;;;;;;;;;;;;;4885117;29;20035;-96
2023/03/24 15:07:28;;;;;;;13.23;10.20;;;;;;;;;;4888204;29;20100;-96
2023/03/24 15:12:24;;;;;;;21.90;14.82;;;;;;;;;;4958022;23;20055;-94
2023/03/24 15:15:05;;;;;;;17.70;14.00;;;;;;;;;;4896584;29;20440;-96
2023/03/24 15:17:54;;;;;;;19.80;13.77;;;;;;;;;;4889394;29;20071;-94
2023/03/24 15:20:33;;;;;;;25.17;16.63;;;;;;;;;;4889953;29;20040;-96
2023/03/24 16:33:04;;;;;;;18.27;13.52;;;;;;;;;;5096331;23;20338;-92
2023/03/24 16:35:30;;;;;;;17.88;15.00;;;;;;;;;;4865352;29;20045;-92
2023/03/24 16:37:56;;;;;;;17.85;12.70;;;;;;;;;;4865012;29;20032;-93
2023/03/24 16:40:37;;;;;;;20.58;12.40;;;;;;;;;;4864737;29;20029;-91
2023/03/24 16:43:03;;;;;;;17.27;11.40;;;;;;;;;;4865359;29;20029;-94
2023/03/24 16:45:34;;;;;;;13.55;10.73;;;;;;;;;;4868017;29;20028;-96
2023/03/24 16:48:00;;;;;;;16.13;10.38;;;;;;;;;;4867043;29;20100;-95
2023/03/24 16:50:30;;;;;;;14.70;10.80;;;;;;;;;;4866174;29;20045;-95
2023/03/24 16:53:29;;;;;;;13.85;10.60;;;;;;;;;;4866814;29;20021;-96
2023/03/24 16:58:55;;;;;;;19.10;12.73;;;;;;;;;;5028612;23;20147;-95
2023/03/24 17:01:28;;;;;;;16.60;10.73;;;;;;;;;;4869184;29;20084;-95
2023/03/24 17:03:54;;;;;;;17.83;11.32;;;;;;;;;;4867559;29;20116;-96
2023/03/24 17:06:21;;;;;;;21.48;15.57;;;;;;;;;;4867980;29;20036;-94
2023/03/24 17:18:00;;;;;;;5.15;3.13;;;;;;;;;;4972762;23;20477;-96
2023/03/24 17:20:28;;;;;;;7.25;3.22;;;;;;;;;;4877345;29;20037;-96